Terminal Aerodrome Forecast
Issued by NWS Sterling, VA

Current Version | Previous Version | Graphics & Text | Print | Product List | Glossary On
Versions: 1 2 3 4 5 6 7 8 9 10 11 12 13 14 15 16 17 18 19 20 21 22 23 24
000
FTUS41 KLWX 160247 AAA
TAFIAD
TAF AMD
KIAD 160247Z 1603/1706 19004KT P6SM BKN040 OVC210
     FM160600 21006KT P6SM BKN100
     FM161300 24007KT P6SM FEW250
     FM161500 27011KT P6SM FEW250
     FM162100 30014G22KT P6SM FEW050
     FM170300 30010KT P6SM FEW250=

USA.gov is the U.S. government's official web portal to all federal, state and local government web resources and services.